sensor_id;sensor_type;location;lat;lon;timestamp;P1;durP1;ratioP1;P2;durP2;ratioP2
14907;SDS011;7545;52.092;7.006;2023-06-14T00:01:38;4.22;;;1.75;;
14907;SDS011;7545;52.092;7.006;2023-06-14T00:04:04;3.50;;;2.38;;
14907;SDS011;7545;52.092;7.006;2023-06-14T00:06:33;4.20;;;2.42;;
14907;SDS011;7545;52.092;7.006;2023-06-14T00:08:59;3.17;;;1.83;;
14907;SDS011;7545;52.092;7.006;2023-06-14T00:11:25;3.08;;;1.92;;
14907;SDS011;7545;52.092;7.006;2023-06-14T00:13:51;3.17;;;1.88;;
14907;SDS011;7545;52.092;7.006;2023-06-14T00:16:17;5.38;;;3.13;;
14907;SDS011;7545;52.092;7.006;2023-06-14T00:18:44;3.22;;;2.38;;
14907;SDS011;7545;52.092;7.006;2023-06-14T00:21:11;6.00;;;2.42;;
14907;SDS011;7545;52.092;7.006;2023-06-14T00:23:37;3.95;;;1.65;;
14907;SDS011;7545;52.092;7.006;2023-06-14T00:26:03;7.15;;;2.50;;
14907;SDS011;7545;52.092;7.006;2023-06-14T00:28:28;2.30;;;2.10;;
14907;SDS011;7545;52.092;7.006;2023-06-14T00:30:54;2.35;;;1.52;;
14907;SDS011;7545;52.092;7.006;2023-06-14T00:33:20;3.47;;;2.38;;
14907;SDS011;7545;52.092;7.006;2023-06-14T00:35:46;1.98;;;1.70;;
14907;SDS011;7545;52.092;7.006;2023-06-14T00:38:12;4.38;;;1.95;;
14907;SDS011;7545;52.092;7.006;2023-06-14T00:40:37;1.73;;;1.40;;
14907;SDS011;7545;52.092;7.006;2023-06-14T00:43:03;3.40;;;1.50;;
14907;SDS011;7545;52.092;7.006;2023-06-14T00:45:29;2.60;;;1.85;;
14907;SDS011;7545;52.092;7.006;2023-06-14T00:47:56;2.55;;;1.70;;
14907;SDS011;7545;52.092;7.006;2023-06-14T00:50:22;2.00;;;1.60;;
14907;SDS011;7545;52.092;7.006;2023-06-14T00:52:48;4.57;;;2.08;;
14907;SDS011;7545;52.092;7.006;2023-06-14T00:55:14;4.30;;;1.90;;
14907;SDS011;7545;52.092;7.006;2023-06-14T00:57:40;3.42;;;1.60;;
14907;SDS011;7545;52.092;7.006;2023-06-14T01:00:07;2.88;;;1.77;;
14907;SDS011;7545;52.092;7.006;2023-06-14T01:02:37;2.50;;;1.92;;
14907;SDS011;7545;52.092;7.006;2023-06-14T01:05:03;2.13;;;1.70;;
14907;SDS011;7545;52.092;7.006;2023-06-14T01:15:48;2.25;;;1.77;;
14907;SDS011;7545;52.092;7.006;2023-06-14T01:18:15;3.58;;;1.67;;
14907;SDS011;7545;52.092;7.006;2023-06-14T01:20:45;3.53;;;2.05;;
14907;SDS011;7545;52.092;7.006;2023-06-14T01:23:14;4.57;;;1.90;;
14907;SDS011;7545;52.092;7.006;2023-06-14T01:25:47;4.90;;;2.08;;
14907;SDS011;7545;52.092;7.006;2023-06-14T01:28:17;5.13;;;1.60;;
14907;SDS011;7545;52.092;7.006;2023-06-14T01:30:46;4.60;;;1.77;;
14907;SDS011;7545;52.092;7.006;2023-06-14T01:33:15;3.40;;;1.70;;
14907;SDS011;7545;52.092;7.006;2023-06-14T01:35:44;4.13;;;1.77;;
14907;SDS011;7545;52.092;7.006;2023-06-14T01:38:15;2.00;;;1.80;;
14907;SDS011;7545;52.092;7.006;2023-06-14T01:40:46;4.35;;;1.90;;
14907;SDS011;7545;52.092;7.006;2023-06-14T01:43:13;3.13;;;1.75;;
14907;SDS011;7545;52.092;7.006;2023-06-14T01:45:40;2.47;;;2.03;;
14907;SDS011;7545;52.092;7.006;2023-06-14T01:48:07;4.10;;;1.90;;
14907;SDS011;7545;52.092;7.006;2023-06-14T01:50:33;3.67;;;1.85;;
14907;SDS011;7545;52.092;7.006;2023-06-14T01:52:59;3.78;;;2.10;;
14907;SDS011;7545;52.092;7.006;2023-06-14T01:55:25;4.97;;;1.88;;
14907;SDS011;7545;52.092;7.006;2023-06-14T01:57:51;2.95;;;1.90;;
14907;SDS011;7545;52.092;7.006;2023-06-14T02:00:17;3.90;;;2.05;;
14907;SDS011;7545;52.092;7.006;2023-06-14T02:02:43;3.22;;;1.77;;
14907;SDS011;7545;52.092;7.006;2023-06-14T02:05:09;2.13;;;1.50;;
14907;SDS011;7545;52.092;7.006;2023-06-14T02:07:35;3.00;;;2.08;;
14907;SDS011;7545;52.092;7.006;2023-06-14T02:10:01;8.02;;;2.50;;
14907;SDS011;7545;52.092;7.006;2023-06-14T02:12:27;4.65;;;1.75;;
14907;SDS011;7545;52.092;7.006;2023-06-14T02:14:53;2.63;;;1.70;;
14907;SDS011;7545;52.092;7.006;2023-06-14T02:17:19;4.40;;;3.00;;
14907;SDS011;7545;52.092;7.006;2023-06-14T02:19:45;2.65;;;1.95;;
14907;SDS011;7545;52.092;7.006;2023-06-14T02:22:10;2.35;;;1.83;;
14907;SDS011;7545;52.092;7.006;2023-06-14T02:24:36;2.58;;;1.90;;
14907;SDS011;7545;52.092;7.006;2023-06-14T02:27:02;6.03;;;1.88;;
14907;SDS011;7545;52.092;7.006;2023-06-14T02:29:28;2.38;;;1.65;;
14907;SDS011;7545;52.092;7.006;2023-06-14T02:31:54;2.70;;;1.83;;
14907;SDS011;7545;52.092;7.006;2023-06-14T02:34:19;2.92;;;1.60;;
14907;SDS011;7545;52.092;7.006;2023-06-14T02:36:46;4.60;;;1.80;;
14907;SDS011;7545;52.092;7.006;2023-06-14T02:39:13;2.22;;;1.63;;
14907;SDS011;7545;52.092;7.006;2023-06-14T02:41:39;4.13;;;2.00;;
14907;SDS011;7545;52.092;7.006;2023-06-14T02:44:04;3.53;;;1.90;;
14907;SDS011;7545;52.092;7.006;2023-06-14T02:46:31;2.28;;;1.77;;
14907;SDS011;7545;52.092;7.006;2023-06-14T02:48:58;2.47;;;1.83;;
14907;SDS011;7545;52.092;7.006;2023-06-14T02:51:24;2.42;;;1.73;;
14907;SDS011;7545;52.092;7.006;2023-06-14T02:53:50;1.77;;;1.67;;
14907;SDS011;7545;52.092;7.006;2023-06-14T02:56:16;5.78;;;2.35;;
14907;SDS011;7545;52.092;7.006;2023-06-14T02:58:44;6.97;;;2.00;;
14907;SDS011;7545;52.092;7.006;2023-06-14T03:01:09;2.50;;;1.70;;
14907;SDS011;7545;52.092;7.006;2023-06-14T03:03:39;3.42;;;1.80;;
14907;SDS011;7545;52.092;7.006;2023-06-14T03:06:04;2.50;;;1.92;;
14907;SDS011;7545;52.092;7.006;2023-06-14T03:08:30;3.42;;;1.85;;
14907;SDS011;7545;52.092;7.006;2023-06-14T03:11:03;3.63;;;1.75;;
14907;SDS011;7545;52.092;7.006;2023-06-14T03:13:30;4.95;;;2.55;;
14907;SDS011;7545;52.092;7.006;2023-06-14T03:15:57;8.15;;;2.35;;
14907;SDS011;7545;52.092;7.006;2023-06-14T03:18:23;3.55;;;2.28;;
14907;SDS011;7545;52.092;7.006;2023-06-14T03:20:48;4.13;;;1.92;;
14907;SDS011;7545;52.092;7.006;2023-06-14T03:23:15;2.50;;;1.88;;
14907;SDS011;7545;52.092;7.006;2023-06-14T03:25:41;5.10;;;1.90;;
14907;SDS011;7545;52.092;7.006;2023-06-14T03:28:07;2.65;;;1.73;;
14907;SDS011;7545;52.092;7.006;2023-06-14T03:30:33;3.00;;;2.22;;
14907;SDS011;7545;52.092;7.006;2023-06-14T03:33:01;2.55;;;1.88;;
14907;SDS011;7545;52.092;7.006;2023-06-14T03:35:36;2.42;;;1.90;;
14907;SDS011;7545;52.092;7.006;2023-06-14T03:38:02;4.82;;;1.92;;
14907;SDS011;7545;52.092;7.006;2023-06-14T03:40:28;2.50;;;2.03;;
14907;SDS011;7545;52.092;7.006;2023-06-14T03:42:54;3.22;;;2.00;;
14907;SDS011;7545;52.092;7.006;2023-06-14T03:45:20;3.00;;;1.75;;
14907;SDS011;7545;52.092;7.006;2023-06-14T03:47:46;6.18;;;2.25;;
14907;SDS011;7545;52.092;7.006;2023-06-14T03:50:12;4.53;;;2.10;;
14907;SDS011;7545;52.092;7.006;2023-06-14T03:52:37;3.47;;;1.80;;
14907;SDS011;7545;52.092;7.006;2023-06-14T03:55:03;5.22;;;2.78;;
14907;SDS011;7545;52.092;7.006;2023-06-14T03:57:29;2.63;;;2.00;;
14907;SDS011;7545;52.092;7.006;2023-06-14T03:59:55;2.38;;;2.10;;
14907;SDS011;7545;52.092;7.006;2023-06-14T04:02:21;2.80;;;2.25;;
14907;SDS011;7545;52.092;7.006;2023-06-14T04:04:47;2.65;;;1.77;;
14907;SDS011;7545;52.092;7.006;2023-06-14T04:07:16;7.85;;;2.33;;
14907;SDS011;7545;52.092;7.006;2023-06-14T04:09:45;5.65;;;1.73;;
14907;SDS011;7545;52.092;7.006;2023-06-14T04:12:11;5.68;;;2.10;;
14907;SDS011;7545;52.092;7.006;2023-06-14T04:14:37;3.53;;;2.15;;
14907;SDS011;7545;52.092;7.006;2023-06-14T04:17:03;4.20;;;1.92;;
14907;SDS011;7545;52.092;7.006;2023-06-14T04:19:29;2.97;;;2.20;;
14907;SDS011;7545;52.092;7.006;2023-06-14T04:21:55;1.67;;;1.55;;
14907;SDS011;7545;52.092;7.006;2023-06-14T04:24:21;3.60;;;2.33;;
14907;SDS011;7545;52.092;7.006;2023-06-14T04:26:48;3.85;;;2.20;;
14907;SDS011;7545;52.092;7.006;2023-06-14T04:29:16;3.78;;;2.30;;
14907;SDS011;7545;52.092;7.006;2023-06-14T04:31:44;3.45;;;1.70;;
14907;SDS011;7545;52.092;7.006;2023-06-14T04:34:11;3.15;;;1.90;;
14907;SDS011;7545;52.092;7.006;2023-06-14T04:36:41;5.93;;;2.42;;
14907;SDS011;7545;52.092;7.006;2023-06-14T04:39:16;5.45;;;2.05;;
14907;SDS011;7545;52.092;7.006;2023-06-14T04:41:42;3.35;;;1.90;;
14907;SDS011;7545;52.092;7.006;2023-06-14T04:44:08;2.42;;;1.98;;
14907;SDS011;7545;52.092;7.006;2023-06-14T04:46:35;3.92;;;2.80;;
14907;SDS011;7545;52.092;7.006;2023-06-14T04:49:09;3.70;;;2.08;;
14907;SDS011;7545;52.092;7.006;2023-06-14T04:51:35;2.83;;;1.77;;
14907;SDS011;7545;52.092;7.006;2023-06-14T04:54:01;4.20;;;1.70;;
14907;SDS011;7545;52.092;7.006;2023-06-14T04:56:28;2.28;;;1.70;;
14907;SDS011;7545;52.092;7.006;2023-06-14T04:58:54;3.63;;;1.80;;
14907;SDS011;7545;52.092;7.006;2023-06-14T05:01:21;4.55;;;1.85;;
14907;SDS011;7545;52.092;7.006;2023-06-14T05:03:48;3.95;;;2.00;;
14907;SDS011;7545;52.092;7.006;2023-06-14T05:06:14;3.78;;;1.98;;
14907;SDS011;7545;52.092;7.006;2023-06-14T05:08:40;2.92;;;1.80;;
14907;SDS011;7545;52.092;7.006;2023-06-14T05:11:06;2.83;;;2.20;;
14907;SDS011;7545;52.092;7.006;2023-06-14T05:13:32;4.50;;;1.92;;
14907;SDS011;7545;52.092;7.006;2023-06-14T05:15:59;2.42;;;1.92;;
14907;SDS011;7545;52.092;7.006;2023-06-14T05:18:25;2.92;;;1.92;;
14907;SDS011;7545;52.092;7.006;2023-06-14T05:20:51;8.05;;;2.22;;
14907;SDS011;7545;52.092;7.006;2023-06-14T05:26:07;3.13;;;1.98;;
14907;SDS011;7545;52.092;7.006;2023-06-14T05:39:11;2.20;;;1.70;;
14907;SDS011;7545;52.092;7.006;2023-06-14T05:41:36;3.67;;;2.10;;
14907;SDS011;7545;52.092;7.006;2023-06-14T05:44:02;3.15;;;1.92;;
14907;SDS011;7545;52.092;7.006;2023-06-14T05:46:27;3.30;;;1.88;;
14907;SDS011;7545;52.092;7.006;2023-06-14T05:48:54;3.33;;;1.65;;
14907;SDS011;7545;52.092;7.006;2023-06-14T05:51:20;2.22;;;1.90;;
14907;SDS011;7545;52.092;7.006;2023-06-14T05:53:47;2.95;;;1.75;;
14907;SDS011;7545;52.092;7.006;2023-06-14T05:56:13;4.93;;;2.15;;
14907;SDS011;7545;52.092;7.006;2023-06-14T05:58:39;6.03;;;1.73;;
14907;SDS011;7545;52.092;7.006;2023-06-14T06:01:05;2.88;;;1.65;;
14907;SDS011;7545;52.092;7.006;2023-06-14T06:03:31;3.33;;;1.63;;
14907;SDS011;7545;52.092;7.006;2023-06-14T06:05:57;5.07;;;1.70;;
14907;SDS011;7545;52.092;7.006;2023-06-14T06:08:23;3.17;;;1.70;;
14907;SDS011;7545;52.092;7.006;2023-06-14T06:10:49;3.63;;;2.08;;
14907;SDS011;7545;52.092;7.006;2023-06-14T06:13:14;2.30;;;1.63;;
14907;SDS011;7545;52.092;7.006;2023-06-14T06:15:40;3.83;;;1.63;;
14907;SDS011;7545;52.092;7.006;2023-06-14T06:18:06;3.67;;;2.00;;
14907;SDS011;7545;52.092;7.006;2023-06-14T06:20:31;2.03;;;1.70;;
14907;SDS011;7545;52.092;7.006;2023-06-14T06:22:57;3.42;;;1.60;;
14907;SDS011;7545;52.092;7.006;2023-06-14T06:25:23;3.28;;;1.80;;
14907;SDS011;7545;52.092;7.006;2023-06-14T06:27:51;2.45;;;1.58;;
14907;SDS011;7545;52.092;7.006;2023-06-14T06:30:17;2.25;;;1.48;;
14907;SDS011;7545;52.092;7.006;2023-06-14T06:32:43;1.70;;;1.30;;
14907;SDS011;7545;52.092;7.006;2023-06-14T06:35:08;2.17;;;1.42;;
14907;SDS011;7545;52.092;7.006;2023-06-14T06:37:36;5.25;;;1.35;;
14907;SDS011;7545;52.092;7.006;2023-06-14T06:40:02;5.60;;;1.10;;
14907;SDS011;7545;52.092;7.006;2023-06-14T06:42:30;2.20;;;1.40;;
14907;SDS011;7545;52.092;7.006;2023-06-14T06:44:56;1.45;;;1.33;;
14907;SDS011;7545;52.092;7.006;2023-06-14T06:47:22;3.30;;;1.13;;
14907;SDS011;7545;52.092;7.006;2023-06-14T06:49:48;2.80;;;1.23;;
14907;SDS011;7545;52.092;7.006;2023-06-14T06:52:13;6.25;;;1.20;;
14907;SDS011;7545;52.092;7.006;2023-06-14T06:54:39;1.67;;;1.13;;
14907;SDS011;7545;52.092;7.006;2023-06-14T06:57:05;2.78;;;1.27;;
14907;SDS011;7545;52.092;7.006;2023-06-14T06:59:31;1.40;;;1.02;;
14907;SDS011;7545;52.092;7.006;2023-06-14T07:01:57;3.90;;;1.15;;
14907;SDS011;7545;52.092;7.006;2023-06-14T07:04:22;1.35;;;1.10;;
14907;SDS011;7545;52.092;7.006;2023-06-14T07:06:48;2.60;;;1.00;;
14907;SDS011;7545;52.092;7.006;2023-06-14T07:09:14;3.90;;;1.17;;
14907;SDS011;7545;52.092;7.006;2023-06-14T07:11:41;3.30;;;1.33;;
14907;SDS011;7545;52.092;7.006;2023-06-14T07:14:07;2.05;;;1.20;;
14907;SDS011;7545;52.092;7.006;2023-06-14T07:16:33;1.10;;;1.00;;
14907;SDS011;7545;52.092;7.006;2023-06-14T07:18:58;1.48;;;1.13;;
14907;SDS011;7545;52.092;7.006;2023-06-14T07:21:25;1.38;;;0.90;;
14907;SDS011;7545;52.092;7.006;2023-06-14T07:23:52;3.42;;;1.33;;
14907;SDS011;7545;52.092;7.006;2023-06-14T07:26:18;1.75;;;1.00;;
14907;SDS011;7545;52.092;7.006;2023-06-14T07:28:43;3.40;;;1.98;;
14907;SDS011;7545;52.092;7.006;2023-06-14T07:31:15;1.27;;;1.00;;
14907;SDS011;7545;52.092;7.006;2023-06-14T07:33:42;3.53;;;1.25;;
14907;SDS011;7545;52.092;7.006;2023-06-14T07:36:07;1.48;;;1.20;;
14907;SDS011;7545;52.092;7.006;2023-06-14T07:38:33;1.35;;;1.05;;
14907;SDS011;7545;52.092;7.006;2023-06-14T07:40:59;1.42;;;1.25;;
14907;SDS011;7545;52.092;7.006;2023-06-14T07:43:25;1.45;;;0.90;;
14907;SDS011;7545;52.092;7.006;2023-06-14T07:45:51;1.45;;;0.90;;
14907;SDS011;7545;52.092;7.006;2023-06-14T07:48:18;7.15;;;1.10;;
14907;SDS011;7545;52.092;7.006;2023-06-14T07:50:44;1.95;;;1.20;;
14907;SDS011;7545;52.092;7.006;2023-06-14T07:53:09;1.55;;;1.10;;
14907;SDS011;7545;52.092;7.006;2023-06-14T07:55:35;2.35;;;1.10;;
14907;SDS011;7545;52.092;7.006;2023-06-14T07:58:02;2.42;;;1.08;;
14907;SDS011;7545;52.092;7.006;2023-06-14T08:00:28;1.67;;;1.00;;
14907;SDS011;7545;52.092;7.006;2023-06-14T08:03:00;2.67;;;1.33;;
14907;SDS011;7545;52.092;7.006;2023-06-14T08:05:25;1.85;;;1.23;;
14907;SDS011;7545;52.092;7.006;2023-06-14T08:07:52;1.83;;;1.08;;
14907;SDS011;7545;52.092;7.006;2023-06-14T08:10:17;1.75;;;1.00;;
14907;SDS011;7545;52.092;7.006;2023-06-14T08:12:43;1.95;;;1.17;;
14907;SDS011;7545;52.092;7.006;2023-06-14T08:15:09;1.63;;;1.27;;
14907;SDS011;7545;52.092;7.006;2023-06-14T08:17:35;1.73;;;1.27;;
14907;SDS011;7545;52.092;7.006;2023-06-14T08:20:01;1.45;;;1.10;;
14907;SDS011;7545;52.092;7.006;2023-06-14T08:22:29;2.25;;;1.02;;
14907;SDS011;7545;52.092;7.006;2023-06-14T08:24:57;1.60;;;1.15;;
14907;SDS011;7545;52.092;7.006;2023-06-14T08:27:23;1.30;;;1.08;;
14907;SDS011;7545;52.092;7.006;2023-06-14T08:29:48;2.42;;;1.30;;
14907;SDS011;7545;52.092;7.006;2023-06-14T08:32:15;2.03;;;0.90;;
14907;SDS011;7545;52.092;7.006;2023-06-14T08:34:40;4.80;;;1.00;;
14907;SDS011;7545;52.092;7.006;2023-06-14T08:37:06;1.90;;;1.00;;
14907;SDS011;7545;52.092;7.006;2023-06-14T08:39:32;1.40;;;1.10;;
14907;SDS011;7545;52.092;7.006;2023-06-14T08:41:58;2.47;;;0.80;;
14907;SDS011;7545;52.092;7.006;2023-06-14T08:44:26;4.00;;;1.20;;
14907;SDS011;7545;52.092;7.006;2023-06-14T08:46:51;1.02;;;0.93;;
14907;SDS011;7545;52.092;7.006;2023-06-14T08:49:20;1.25;;;1.00;;
14907;SDS011;7545;52.092;7.006;2023-06-14T08:51:46;1.20;;;1.10;;
14907;SDS011;7545;52.092;7.006;2023-06-14T08:54:16;2.67;;;1.50;;
14907;SDS011;7545;52.092;7.006;2023-06-14T08:56:45;1.30;;;1.10;;
14907;SDS011;7545;52.092;7.006;2023-06-14T08:59:13;1.85;;;1.40;;
14907;SDS011;7545;52.092;7.006;2023-06-14T09:01:40;2.97;;;1.38;;
14907;SDS011;7545;52.092;7.006;2023-06-14T09:04:05;6.07;;;1.25;;
14907;SDS011;7545;52.092;7.006;2023-06-14T09:06:31;2.17;;;0.80;;
14907;SDS011;7545;52.092;7.006;2023-06-14T09:08:58;2.40;;;1.30;;
14907;SDS011;7545;52.092;7.006;2023-06-14T09:11:23;1.40;;;1.00;;
14907;SDS011;7545;52.092;7.006;2023-06-14T09:13:51;2.42;;;1.30;;
14907;SDS011;7545;52.092;7.006;2023-06-14T09:16:16;2.05;;;1.33;;
14907;SDS011;7545;52.092;7.006;2023-06-14T09:18:43;2.78;;;1.30;;
14907;SDS011;7545;52.092;7.006;2023-06-14T09:21:13;2.17;;;0.95;;
14907;SDS011;7545;52.092;7.006;2023-06-14T09:23:41;2.95;;;1.27;;
14907;SDS011;7545;52.092;7.006;2023-06-14T09:26:08;2.35;;;1.00;;
14907;SDS011;7545;52.092;7.006;2023-06-14T09:28:35;2.22;;;1.38;;
14907;SDS011;7545;52.092;7.006;2023-06-14T09:31:01;1.27;;;1.17;;
14907;SDS011;7545;52.092;7.006;2023-06-14T09:33:27;1.77;;;1.05;;
14907;SDS011;7545;52.092;7.006;2023-06-14T09:35:53;3.35;;;1.40;;
14907;SDS011;7545;52.092;7.006;2023-06-14T09:38:19;1.67;;;1.30;;
14907;SDS011;7545;52.092;7.006;2023-06-14T09:40:45;2.72;;;0.85;;
14907;SDS011;7545;52.092;7.006;2023-06-14T09:43:11;1.02;;;0.70;;
14907;SDS011;7545;52.092;7.006;2023-06-14T09:45:37;1.10;;;0.90;;
14907;SDS011;7545;52.092;7.006;2023-06-14T09:48:05;1.73;;;1.10;;
14907;SDS011;7545;52.092;7.006;2023-06-14T09:50:32;1.40;;;1.25;;
14907;SDS011;7545;52.092;7.006;2023-06-14T09:53:00;3.20;;;1.55;;
14907;SDS011;7545;52.092;7.006;2023-06-14T09:55:30;1.83;;;1.05;;
14907;SDS011;7545;52.092;7.006;2023-06-14T09:57:59;3.45;;;1.23;;
14907;SDS011;7545;52.092;7.006;2023-06-14T10:00:31;4.15;;;1.15;;
14907;SDS011;7545;52.092;7.006;2023-06-14T10:03:00;1.00;;;0.80;;
14907;SDS011;7545;52.092;7.006;2023-06-14T10:05:31;2.88;;;1.20;;
14907;SDS011;7545;52.092;7.006;2023-06-14T10:08:00;1.38;;;0.93;;
14907;SDS011;7545;52.092;7.006;2023-06-14T10:10:30;2.15;;;1.17;;
14907;SDS011;7545;52.092;7.006;2023-06-14T10:12:56;2.10;;;0.77;;
14907;SDS011;7545;52.092;7.006;2023-06-14T10:18:10;5.05;;;1.20;;
14907;SDS011;7545;52.092;7.006;2023-06-14T10:20:55;2.33;;;1.10;;
14907;SDS011;7545;52.092;7.006;2023-06-14T10:23:42;0.70;;;0.70;;
14907;SDS011;7545;52.092;7.006;2023-06-14T10:26:17;2.45;;;1.10;;
14907;SDS011;7545;52.092;7.006;2023-06-14T10:28:55;1.17;;;1.08;;
14907;SDS011;7545;52.092;7.006;2023-06-14T10:31:42;1.13;;;1.00;;
14907;SDS011;7545;52.092;7.006;2023-06-14T10:34:12;2.92;;;0.88;;
14907;SDS011;7545;52.092;7.006;2023-06-14T10:37:12;1.65;;;1.10;;
14907;SDS011;7545;52.092;7.006;2023-06-14T10:39:39;4.70;;;0.80;;
14907;SDS011;7545;52.092;7.006;2023-06-14T10:42:06;0.85;;;0.80;;
14907;SDS011;7545;52.092;7.006;2023-06-14T10:46:59;0.85;;;0.85;;
14907;SDS011;7545;52.092;7.006;2023-06-14T10:49:41;1.38;;;1.02;;
14907;SDS011;7545;52.092;7.006;2023-06-14T10:52:09;1.60;;;1.05;;
14907;SDS011;7545;52.092;7.006;2023-06-14T10:57:26;1.40;;;0.70;;
14907;SDS011;7545;52.092;7.006;2023-06-14T10:59:52;0.93;;;0.70;;
14907;SDS011;7545;52.092;7.006;2023-06-14T11:04:48;1.35;;;0.80;;
14907;SDS011;7545;52.092;7.006;2023-06-14T11:10:13;2.13;;;1.13;;
14907;SDS011;7545;52.092;7.006;2023-06-14T11:13:02;1.55;;;1.02;;
14907;SDS011;7545;52.092;7.006;2023-06-14T11:15:32;1.70;;;1.10;;
14907;SDS011;7545;52.092;7.006;2023-06-14T11:18:05;2.45;;;0.90;;
14907;SDS011;7545;52.092;7.006;2023-06-14T11:20:33;1.38;;;0.90;;
14907;SDS011;7545;52.092;7.006;2023-06-14T11:23:00;2.65;;;0.90;;
14907;SDS011;7545;52.092;7.006;2023-06-14T11:25:26;1.83;;;1.00;;
14907;SDS011;7545;52.092;7.006;2023-06-14T11:27:55;1.95;;;0.88;;
14907;SDS011;7545;52.092;7.006;2023-06-14T11:30:21;2.97;;;0.90;;
14907;SDS011;7545;52.092;7.006;2023-06-14T11:32:47;2.17;;;0.90;;
14907;SDS011;7545;52.092;7.006;2023-06-14T11:35:14;3.50;;;0.73;;
14907;SDS011;7545;52.092;7.006;2023-06-14T11:37:40;1.20;;;0.70;;
14907;SDS011;7545;52.092;7.006;2023-06-14T11:40:07;1.73;;;0.80;;
14907;SDS011;7545;52.092;7.006;2023-06-14T11:42:35;1.58;;;0.68;;
14907;SDS011;7545;52.092;7.006;2023-06-14T11:45:01;0.98;;;0.90;;
14907;SDS011;7545;52.092;7.006;2023-06-14T11:47:34;2.80;;;0.85;;
14907;SDS011;7545;52.092;7.006;2023-06-14T11:50:01;1.60;;;0.98;;
14907;SDS011;7545;52.092;7.006;2023-06-14T11:52:28;2.17;;;0.57;;
14907;SDS011;7545;52.092;7.006;2023-06-14T11:54:54;3.10;;;0.70;;
14907;SDS011;7545;52.092;7.006;2023-06-14T11:57:20;2.35;;;0.80;;
14907;SDS011;7545;52.092;7.006;2023-06-14T11:59:45;3.63;;;0.70;;
14907;SDS011;7545;52.092;7.006;2023-06-14T12:02:15;1.48;;;0.65;;
14907;SDS011;7545;52.092;7.006;2023-06-14T12:04:42;1.30;;;0.80;;
14907;SDS011;7545;52.092;7.006;2023-06-14T12:07:12;2.25;;;0.75;;
14907;SDS011;7545;52.092;7.006;2023-06-14T12:09:40;2.70;;;0.98;;
14907;SDS011;7545;52.092;7.006;2023-06-14T12:12:09;1.10;;;0.77;;
14907;SDS011;7545;52.092;7.006;2023-06-14T12:14:35;0.88;;;0.80;;
14907;SDS011;7545;52.092;7.006;2023-06-14T12:17:05;3.80;;;1.00;;
14907;SDS011;7545;52.092;7.006;2023-06-14T12:19:31;1.60;;;1.10;;
14907;SDS011;7545;52.092;7.006;2023-06-14T12:21:59;2.38;;;0.90;;
14907;SDS011;7545;52.092;7.006;2023-06-14T12:24:28;2.58;;;1.00;;
14907;SDS011;7545;52.092;7.006;2023-06-14T12:26:54;1.77;;;0.98;;
14907;SDS011;7545;52.092;7.006;2023-06-14T12:29:23;3.28;;;1.20;;
14907;SDS011;7545;52.092;7.006;2023-06-14T12:31:49;1.02;;;0.73;;
14907;SDS011;7545;52.092;7.006;2023-06-14T12:34:15;1.90;;;1.02;;
14907;SDS011;7545;52.092;7.006;2023-06-14T12:36:40;1.17;;;0.82;;
14907;SDS011;7545;52.092;7.006;2023-06-14T12:39:09;1.42;;;0.82;;
14907;SDS011;7545;52.092;7.006;2023-06-14T12:41:35;1.30;;;1.00;;
14907;SDS011;7545;52.092;7.006;2023-06-14T12:44:02;1.88;;;1.17;;
14907;SDS011;7545;52.092;7.006;2023-06-14T12:46:30;1.45;;;1.02;;
14907;SDS011;7545;52.092;7.006;2023-06-14T12:48:56;0.75;;;0.65;;
14907;SDS011;7545;52.092;7.006;2023-06-14T12:51:22;0.90;;;0.80;;
14907;SDS011;7545;52.092;7.006;2023-06-14T12:53:48;2.10;;;1.00;;
14907;SDS011;7545;52.092;7.006;2023-06-14T12:56:14;0.95;;;0.85;;
14907;SDS011;7545;52.092;7.006;2023-06-14T12:58:41;2.40;;;0.88;;
14907;SDS011;7545;52.092;7.006;2023-06-14T13:01:07;2.58;;;1.00;;
14907;SDS011;7545;52.092;7.006;2023-06-14T13:03:32;1.27;;;0.90;;
14907;SDS011;7545;52.092;7.006;2023-06-14T13:05:59;1.40;;;0.98;;
14907;SDS011;7545;52.092;7.006;2023-06-14T13:08:26;1.77;;;1.15;;
14907;SDS011;7545;52.092;7.006;2023-06-14T13:10:51;1.15;;;0.85;;
14907;SDS011;7545;52.092;7.006;2023-06-14T13:13:17;3.17;;;1.10;;
14907;SDS011;7545;52.092;7.006;2023-06-14T13:15:43;3.25;;;1.05;;
14907;SDS011;7545;52.092;7.006;2023-06-14T13:18:09;1.42;;;0.75;;
14907;SDS011;7545;52.092;7.006;2023-06-14T13:20:34;1.48;;;0.85;;
14907;SDS011;7545;52.092;7.006;2023-06-14T13:23:00;1.38;;;0.75;;
14907;SDS011;7545;52.092;7.006;2023-06-14T13:25:27;1.00;;;0.90;;
14907;SDS011;7545;52.092;7.006;2023-06-14T13:27:52;2.78;;;1.02;;
14907;SDS011;7545;52.092;7.006;2023-06-14T13:30:18;2.15;;;1.20;;
14907;SDS011;7545;52.092;7.006;2023-06-14T13:32:43;0.93;;;0.80;;
14907;SDS011;7545;52.092;7.006;2023-06-14T13:35:09;2.45;;;1.20;;
14907;SDS011;7545;52.092;7.006;2023-06-14T13:37:35;2.38;;;0.90;;
14907;SDS011;7545;52.092;7.006;2023-06-14T13:40:00;2.10;;;0.88;;
14907;SDS011;7545;52.092;7.006;2023-06-14T13:42:26;1.17;;;0.80;;
14907;SDS011;7545;52.092;7.006;2023-06-14T13:44:52;1.08;;;0.90;;
14907;SDS011;7545;52.092;7.006;2023-06-14T13:47:18;3.13;;;1.15;;
14907;SDS011;7545;52.092;7.006;2023-06-14T13:49:43;2.53;;;0.82;;
14907;SDS011;7545;52.092;7.006;2023-06-14T13:52:09;0.80;;;0.80;;
14907;SDS011;7545;52.092;7.006;2023-06-14T13:54:36;1.23;;;0.90;;
14907;SDS011;7545;52.092;7.006;2023-06-14T13:57:01;4.00;;;1.00;;
14907;SDS011;7545;52.092;7.006;2023-06-14T13:59:27;1.40;;;0.98;;
14907;SDS011;7545;52.092;7.006;2023-06-14T14:01:53;1.52;;;0.82;;
14907;SDS011;7545;52.092;7.006;2023-06-14T14:04:18;1.88;;;0.90;;
14907;SDS011;7545;52.092;7.006;2023-06-14T14:06:44;4.35;;;0.68;;
14907;SDS011;7545;52.092;7.006;2023-06-14T14:09:10;1.30;;;0.80;;
14907;SDS011;7545;52.092;7.006;2023-06-14T14:11:36;1.40;;;1.08;;
14907;SDS011;7545;52.092;7.006;2023-06-14T14:14:04;1.90;;;0.90;;
14907;SDS011;7545;52.092;7.006;2023-06-14T14:16:30;1.95;;;0.60;;
14907;SDS011;7545;52.092;7.006;2023-06-14T14:18:55;1.17;;;0.90;;
14907;SDS011;7545;52.092;7.006;2023-06-14T14:21:21;1.17;;;0.95;;
14907;SDS011;7545;52.092;7.006;2023-06-14T14:23:46;1.70;;;1.00;;
14907;SDS011;7545;52.092;7.006;2023-06-14T14:26:12;1.55;;;0.90;;
14907;SDS011;7545;52.092;7.006;2023-06-14T14:28:38;1.23;;;0.80;;
14907;SDS011;7545;52.092;7.006;2023-06-14T14:31:04;1.08;;;0.77;;
14907;SDS011;7545;52.092;7.006;2023-06-14T14:33:29;2.00;;;1.00;;
14907;SDS011;7545;52.092;7.006;2023-06-14T14:35:55;1.02;;;0.93;;
14907;SDS011;7545;52.092;7.006;2023-06-14T14:38:20;1.58;;;0.95;;
14907;SDS011;7545;52.092;7.006;2023-06-14T14:40:46;0.80;;;0.70;;
14907;SDS011;7545;52.092;7.006;2023-06-14T14:43:12;0.90;;;0.70;;
14907;SDS011;7545;52.092;7.006;2023-06-14T14:45:38;1.60;;;1.02;;
14907;SDS011;7545;52.092;7.006;2023-06-14T14:48:04;1.40;;;0.82;;
14907;SDS011;7545;52.092;7.006;2023-06-14T14:50:30;1.35;;;0.93;;
14907;SDS011;7545;52.092;7.006;2023-06-14T14:52:56;2.60;;;0.90;;
14907;SDS011;7545;52.092;7.006;2023-06-14T14:55:21;1.00;;;0.77;;
14907;SDS011;7545;52.092;7.006;2023-06-14T14:57:47;1.40;;;0.90;;
14907;SDS011;7545;52.092;7.006;2023-06-14T15:00:13;1.15;;;0.73;;
14907;SDS011;7545;52.092;7.006;2023-06-14T15:02:39;3.08;;;1.00;;
14907;SDS011;7545;52.092;7.006;2023-06-14T15:05:05;1.20;;;0.95;;
14907;SDS011;7545;52.092;7.006;2023-06-14T15:07:31;3.22;;;1.00;;
14907;SDS011;7545;52.092;7.006;2023-06-14T15:09:58;1.70;;;1.30;;
14907;SDS011;7545;52.092;7.006;2023-06-14T15:12:24;1.50;;;1.00;;
14907;SDS011;7545;52.092;7.006;2023-06-14T15:14:50;1.17;;;1.00;;
14907;SDS011;7545;52.092;7.006;2023-06-14T15:17:16;0.80;;;0.80;;
14907;SDS011;7545;52.092;7.006;2023-06-14T15:19:43;1.23;;;0.85;;
14907;SDS011;7545;52.092;7.006;2023-06-14T15:22:10;0.75;;;0.73;;
14907;SDS011;7545;52.092;7.006;2023-06-14T15:24:35;2.55;;;0.90;;
14907;SDS011;7545;52.092;7.006;2023-06-14T15:27:01;0.90;;;0.90;;
14907;SDS011;7545;52.092;7.006;2023-06-14T15:29:27;1.35;;;0.98;;
14907;SDS011;7545;52.092;7.006;2023-06-14T15:31:53;1.80;;;0.85;;
14907;SDS011;7545;52.092;7.006;2023-06-14T15:34:20;0.80;;;0.80;;